createdAt,value
2022-08-02T00:01:08.156Z,89.50
2022-08-02T00:05:36.611Z,90.10
2022-08-02T00:07:49.012Z,90.30
2022-08-02T00:12:17.609Z,91.00
2022-08-02T00:14:28.581Z,90.60
2022-08-02T00:19:00.101Z,90.20
2022-08-02T00:21:11.785Z,90.50
2022-08-02T00:25:54.975Z,90.80
2022-08-02T00:28:00.955Z,90.70
2022-08-02T00:32:34.283Z,90.80
2022-08-02T00:37:02.535Z,91.10
2022-08-02T00:41:30.557Z,90.90
2022-08-02T00:43:41.573Z,91.50
2022-08-02T00:48:15.442Z,91.60
2022-08-02T00:52:43.563Z,92.10
2022-08-02T00:57:11.734Z,91.80
2022-08-02T00:59:23.572Z,91.30
2022-08-02T01:01:57.114Z,91.20
2022-08-02T01:04:05.773Z,92.30
2022-08-02T01:08:34.681Z,92.00
2022-08-02T01:13:03.936Z,92.40
2022-08-02T01:15:17.585Z,92.00
2022-08-02T01:17:37.162Z,92.30
2022-08-02T01:20:05.767Z,92.00
2022-08-02T01:23:05.062Z,91.80
2022-08-02T01:25:30.893Z,92.30
2022-08-02T01:36:45.917Z,93.10
2022-08-02T01:41:24.085Z,93.00
2022-08-02T01:45:58.078Z,92.50
2022-08-02T01:48:12.781Z,92.20
2022-08-02T01:52:54.772Z,93.60
2022-08-02T01:55:18.433Z,94.00
2022-08-02T01:57:41.871Z,93.10
2022-08-02T02:02:13.644Z,93.20
2022-08-02T02:04:27.835Z,93.70
2022-08-02T02:08:59.074Z,93.70
2022-08-02T02:12:14.186Z,93.40
2022-08-02T02:18:17.379Z,93.10
2022-08-02T02:22:47.360Z,93.10
2022-08-02T02:27:24.868Z,93.00
2022-08-02T02:31:57.957Z,92.80
2022-08-02T02:34:14.486Z,92.60
2022-08-02T02:38:44.812Z,93.00
2022-08-02T02:43:20.977Z,93.20
2022-08-02T02:47:52.673Z,93.00
2022-08-02T02:50:05.111Z,93.00
2022-08-02T02:54:37.187Z,93.30
2022-08-02T02:59:11.295Z,93.10
2022-08-02T03:01:55.497Z,93.30
2022-08-02T03:03:57.424Z,92.90
2022-08-02T03:06:02.474Z,93.30
2022-08-02T03:08:20.637Z,93.30
2022-08-02T03:10:33.171Z,93.10
2022-08-02T03:15:07.803Z,93.20
2022-08-02T03:19:36.656Z,93.10
2022-08-02T03:21:57.285Z,92.70
2022-08-02T03:26:22.025Z,93.00
2022-08-02T03:28:34.321Z,93.00
2022-08-02T03:33:06.084Z,92.70
2022-08-02T03:37:39.938Z,93.20
2022-08-02T03:42:11.040Z,92.50
2022-08-02T03:44:28.220Z,93.20
2022-08-02T03:49:02.179Z,93.20
2022-08-02T03:53:33.959Z,93.60
2022-08-02T03:56:47.031Z,93.70
2022-08-02T04:03:23.361Z,93.40
2022-08-02T04:08:33.787Z,92.90
2022-08-02T04:14:44.326Z,92.70
2022-08-02T04:19:30.607Z,93.20
2022-08-02T04:21:50.372Z,93.70
2022-08-02T04:26:26.854Z,93.60
2022-08-02T04:28:40.395Z,92.70
2022-08-02T04:33:11.481Z,93.10
2022-08-02T04:38:05.758Z,93.20
2022-08-02T04:42:33.041Z,93.20
2022-08-02T04:44:45.343Z,93.40
2022-08-02T04:49:16.421Z,93.30
2022-08-02T04:53:47.769Z,93.20
2022-08-02T04:55:58.749Z,93.20
2022-08-02T05:00:27.759Z,93.20
2022-08-02T05:02:40.128Z,93.00
2022-08-02T05:07:11.356Z,93.00
2022-08-02T05:11:40.335Z,93.00
2022-08-02T05:16:08.813Z,93.10
2022-08-02T05:20:37.136Z,93.10
2022-08-02T05:25:10.368Z,92.70
2022-08-02T05:29:39.124Z,92.80
2022-08-02T05:34:16.162Z,92.30
2022-08-02T05:36:27.785Z,92.20
2022-08-02T05:38:42.364Z,92.50
2022-08-02T05:40:56.082Z,91.90
2022-08-02T05:43:15.875Z,91.80
2022-08-02T05:49:47.933Z,90.70
2022-08-02T05:52:10.143Z,90.80
2022-08-02T06:30:43.624Z,88.00
2022-08-02T06:32:55.598Z,88.90
2022-08-02T06:35:08.968Z,88.50
2022-08-02T06:37:30.504Z,88.00
2022-08-02T06:39:52.230Z,88.10
2022-08-02T06:42:14.095Z,87.60
2022-08-02T06:44:48.542Z,87.30
2022-08-02T06:47:11.219Z,86.70
2022-08-02T06:49:18.232Z,86.80
2022-08-02T06:51:30.031Z,85.80
2022-08-02T06:55:58.855Z,85.00
2022-08-02T07:00:30.241Z,84.90
2022-08-02T07:05:00.109Z,85.00
2022-08-02T07:09:29.358Z,84.30
2022-08-02T07:11:40.852Z,83.50
2022-08-02T07:13:51.832Z,83.00
2022-08-02T07:16:06.470Z,82.40
2022-08-02T07:20:35.231Z,82.10
2022-08-02T07:25:04.706Z,81.10
2022-08-02T07:27:15.949Z,79.40
2022-08-02T07:31:47.476Z,78.70
2022-08-02T07:36:16.888Z,79.30
2022-08-02T07:38:33.882Z,79.00
2022-08-02T07:43:04.310Z,77.80
2022-08-02T07:47:39.587Z,76.10
2022-08-02T07:52:08.975Z,74.70
2022-08-02T07:56:37.919Z,74.10
2022-08-02T07:58:48.871Z,72.40
2022-08-02T08:03:19.705Z,72.30
2022-08-02T08:07:47.902Z,70.10
2022-08-02T08:10:00.162Z,70.90
2022-08-02T08:14:30.970Z,67.70
2022-08-02T08:16:45.238Z,68.00
2022-08-02T08:21:16.897Z,66.50
2022-08-02T08:25:44.921Z,64.30
2022-08-02T08:27:56.928Z,62.40
2022-08-02T08:32:27.155Z,63.70
2022-08-02T08:36:58.947Z,62.80
2022-08-02T08:41:27.961Z,60.60
2022-08-02T08:43:41.929Z,60.80
2022-08-02T08:48:16.036Z,60.30
2022-08-02T08:55:27.015Z,59.80
2022-08-02T08:59:58.045Z,54.80
2022-08-02T09:07:45.689Z,54.00
2022-08-02T09:12:17.838Z,56.00
2022-08-02T09:16:49.980Z,53.00
2022-08-02T09:21:19.986Z,49.00
2022-08-02T09:23:39.161Z,50.10
2022-08-02T09:26:05.646Z,49.80
2022-08-02T09:28:13.309Z,48.80
2022-08-02T09:30:25.148Z,50.60
2022-08-02T09:32:48.069Z,46.70
2022-08-02T09:34:56.295Z,49.90
2022-08-02T09:37:08.002Z,44.70
2022-08-02T09:39:22.929Z,46.60
2022-08-02T09:41:37.368Z,45.00
2022-08-02T09:44:03.830Z,45.80
2022-08-02T09:46:24.231Z,46.80
2022-08-02T09:48:29.597Z,45.70
2022-08-02T09:52:52.147Z,46.60
2022-08-02T09:55:09.862Z,48.60
2022-08-02T09:59:33.705Z,43.70
2022-08-02T10:01:51.526Z,41.20
2022-08-02T10:31:12.791Z,38.00
2022-08-02T10:35:44.496Z,38.10
2022-08-02T10:40:26.820Z,37.70
2022-08-02T10:42:48.971Z,37.50
2022-08-02T10:47:30.152Z,39.20
2022-08-02T10:49:53.876Z,38.90
2022-08-02T10:52:12.906Z,38.30
2022-08-02T10:56:51.379Z,36.40
2022-08-02T11:01:49.383Z,37.30
2022-08-02T11:04:06.000Z,37.10
2022-08-02T11:08:33.613Z,38.60
2022-08-02T11:13:14.340Z,35.50
2022-08-02T11:17:59.261Z,37.50
2022-08-02T11:20:21.054Z,35.80
2022-08-02T11:22:32.076Z,36.40
2022-08-02T11:24:44.193Z,35.00
2022-08-02T11:26:55.887Z,36.40
2022-08-02T11:29:08.188Z,35.70
2022-08-02T11:33:41.133Z,35.50
2022-08-02T11:35:53.003Z,35.80
2022-08-02T11:38:18.015Z,32.70
2022-08-02T11:40:40.959Z,33.10
2022-08-02T11:42:53.805Z,32.10
2022-08-02T11:45:05.397Z,35.20
2022-08-02T11:47:17.205Z,33.90
2022-08-02T11:52:05.429Z,35.00
2022-08-02T11:56:44.114Z,33.10
2022-08-02T11:59:06.117Z,32.70
2022-08-02T12:28:39.156Z,32.40
2022-08-02T12:30:59.106Z,32.50
2022-08-02T12:35:34.055Z,31.60
2022-08-02T12:40:27.731Z,31.20
2022-08-02T12:42:50.434Z,30.20
2022-08-02T12:45:05.541Z,35.50
2022-08-02T12:47:17.267Z,32.70
2022-08-02T12:49:29.495Z,31.30
2022-08-02T12:51:51.311Z,32.60
2022-08-02T12:54:17.706Z,31.60
2022-08-02T12:56:34.078Z,31.20
2022-08-02T12:58:52.856Z,29.00
2022-08-02T13:01:06.838Z,30.70
2022-08-02T13:04:11.063Z,30.60
2022-08-02T13:05:57.267Z,27.90
2022-08-02T13:08:03.069Z,30.20
2022-08-02T13:10:14.276Z,31.40
2022-08-02T13:12:27.269Z,31.00
2022-08-02T13:14:42.091Z,29.30
2022-08-02T13:19:15.653Z,26.90
2022-08-02T13:21:41.656Z,28.00
2022-08-02T13:23:54.150Z,28.00
2022-08-02T13:26:07.527Z,27.50
2022-08-02T13:30:36.292Z,25.60
2022-08-02T13:35:09.886Z,26.80
2022-08-02T13:40:05.489Z,24.00
2022-08-02T13:44:29.295Z,23.50
2022-08-02T13:46:45.661Z,23.60
2022-08-02T13:48:59.894Z,24.30
2022-08-02T13:51:12.164Z,24.50
2022-08-02T13:53:26.999Z,27.00
2022-08-02T13:57:57.208Z,23.70
2022-08-02T14:00:11.073Z,24.00
2022-08-02T14:04:41.812Z,22.70
2022-08-02T14:09:15.713Z,23.40
2022-08-02T14:13:45.284Z,24.30
2022-08-02T14:15:56.492Z,22.90
2022-08-02T14:20:29.921Z,22.20
2022-08-02T14:22:42.397Z,23.00
2022-08-02T14:27:11.252Z,23.20
2022-08-02T14:29:22.225Z,23.10
2022-08-02T14:33:50.279Z,23.50
2022-08-02T14:36:03.900Z,22.70
2022-08-02T14:38:17.932Z,23.00
2022-08-02T14:40:31.663Z,22.50
2022-08-02T14:42:43.243Z,22.20
2022-08-02T14:47:11.290Z,22.80
2022-08-02T14:51:42.844Z,26.00
2022-08-02T14:56:11.282Z,27.30
2022-08-02T14:58:22.558Z,28.20
2022-08-02T15:02:51.235Z,30.10
2022-08-02T15:05:02.249Z,27.00
2022-08-02T15:09:33.292Z,28.70
2022-08-02T15:14:08.370Z,27.40
2022-08-02T15:16:28.930Z,26.40
2022-08-02T15:18:42.023Z,25.80
2022-08-02T15:20:57.769Z,26.00
2022-08-02T15:23:11.974Z,26.20
2022-08-02T15:25:25.520Z,26.90
2022-08-02T15:27:39.470Z,27.40
2022-08-02T15:29:51.592Z,26.60
2022-08-02T15:34:20.281Z,26.10
2022-08-02T15:38:50.879Z,29.30
2022-08-02T15:43:21.610Z,29.00
2022-08-02T15:47:50.960Z,27.80
2022-08-02T15:50:02.273Z,24.90
2022-08-02T15:54:32.889Z,26.80
2022-08-02T15:59:01.282Z,27.30
2022-08-02T16:01:12.369Z,26.80
2022-08-02T16:03:24.686Z,25.60
2022-08-02T16:05:36.337Z,24.70
2022-08-02T16:10:08.989Z,23.30
2022-08-02T16:14:37.340Z,23.10
2022-08-02T16:16:48.298Z,23.70
2022-08-02T16:21:17.681Z,25.50
2022-08-02T16:25:48.860Z,21.30
2022-08-02T16:28:07.140Z,22.20
2022-08-02T16:32:32.357Z,21.40
2022-08-02T16:35:04.414Z,23.30
2022-08-02T16:41:50.259Z,23.30
2022-08-02T16:46:14.360Z,24.20
2022-08-02T16:48:25.372Z,21.50
2022-08-02T16:52:55.312Z,22.70
2022-08-02T16:57:42.808Z,22.30
2022-08-02T17:04:20.702Z,22.30
2022-08-02T17:08:54.522Z,25.30
2022-08-02T17:11:06.429Z,26.50
2022-08-02T17:16:08.003Z,24.00
2022-08-02T17:18:05.703Z,24.60
2022-08-02T17:22:31.880Z,24.00
2022-08-02T17:27:05.445Z,25.10
2022-08-02T17:31:37.209Z,23.40
2022-08-02T17:33:53.362Z,24.60
2022-08-02T17:36:04.587Z,24.30
2022-08-02T17:38:26.024Z,25.30
2022-08-02T17:40:38.411Z,26.40
2022-08-02T17:45:16.982Z,28.20
2022-08-02T17:47:31.242Z,29.10
2022-08-02T17:52:48.102Z,30.30
2022-08-02T17:54:24.977Z,31.40
2022-08-02T17:56:30.486Z,32.30
2022-08-02T18:01:23.624Z,34.60
2022-08-02T18:13:32.903Z,37.20
2022-08-02T18:15:47.484Z,38.20
2022-08-02T18:18:02.068Z,41.70
2022-08-02T18:20:14.738Z,43.90
2022-08-02T18:22:26.862Z,44.10
2022-08-02T18:26:57.419Z,45.80
2022-08-02T18:29:09.548Z,46.00
2022-08-02T18:33:55.465Z,47.40
2022-08-02T18:38:21.381Z,49.90
2022-08-02T18:40:32.783Z,51.20
2022-08-02T18:45:01.366Z,52.50
2022-08-02T18:59:11.398Z,58.20
2022-08-02T19:03:40.400Z,57.50
2022-08-02T19:05:53.784Z,59.20
2022-08-02T19:10:22.685Z,60.30
2022-08-02T19:14:54.853Z,61.80
2022-08-02T19:17:53.207Z,60.80
2022-08-02T19:24:00.513Z,64.20
2022-08-02T19:26:16.916Z,65.30
2022-08-02T19:30:50.023Z,66.00
2022-08-02T19:35:30.573Z,66.30
2022-08-02T19:42:14.326Z,67.60
2022-08-02T19:44:29.824Z,67.80
2022-08-02T19:49:00.406Z,68.70
2022-08-02T19:51:12.824Z,69.40
2022-08-02T19:56:01.466Z,68.30
2022-08-02T20:00:28.441Z,69.20
2022-08-02T20:02:39.797Z,69.20
2022-08-02T20:07:09.269Z,70.00
2022-08-02T20:09:23.054Z,70.00
2022-08-02T20:13:51.484Z,70.50
2022-08-02T20:18:26.842Z,71.60
2022-08-02T20:20:44.085Z,70.90
2022-08-02T20:23:32.627Z,71.10
2022-08-02T20:25:32.993Z,71.60
2022-08-02T20:27:50.986Z,72.70
2022-08-02T20:30:03.070Z,72.80
2022-08-02T20:32:22.772Z,73.30
2022-08-02T20:34:28.067Z,72.70
2022-08-02T20:36:40.534Z,71.90
2022-08-02T20:38:51.485Z,72.30
2022-08-02T20:41:03.977Z,72.50
2022-08-02T20:43:15.518Z,72.60
2022-08-02T20:45:30.325Z,72.40
2022-08-02T20:50:21.311Z,71.60
2022-08-02T20:54:54.004Z,71.20
2022-08-02T20:57:05.571Z,70.60
2022-08-02T20:59:21.054Z,71.30
2022-08-02T21:01:37.080Z,71.60
2022-08-02T21:28:13.606Z,73.70
2022-08-02T21:30:29.836Z,74.40
2022-08-02T21:35:00.469Z,74.50
2022-08-02T21:39:28.891Z,74.80
2022-08-02T21:44:06.188Z,74.00
2022-08-02T21:46:18.544Z,76.10
2022-08-02T21:50:46.574Z,76.90
2022-08-02T21:55:14.866Z,77.50
2022-08-02T21:57:34.808Z,77.80
2022-08-02T22:01:59.867Z,79.10
2022-08-02T22:06:37.683Z,78.60
2022-08-02T22:11:16.889Z,78.90
2022-08-02T22:13:22.752Z,79.10
2022-08-02T22:17:52.893Z,79.10
2022-08-02T22:22:28.374Z,79.80
2022-08-02T22:24:40.027Z,79.50
2022-08-02T22:29:08.732Z,80.40
2022-08-02T22:31:40.983Z,81.00
2022-08-02T22:34:00.258Z,80.80
2022-08-02T22:38:24.779Z,80.60
2022-08-02T22:40:36.617Z,81.00
2022-08-02T22:45:04.640Z,81.70
2022-08-02T22:49:37.011Z,81.10
2022-08-02T22:51:50.572Z,82.20
2022-08-02T22:56:21.824Z,82.20
2022-08-02T23:00:50.916Z,83.50
2022-08-02T23:03:06.724Z,83.60
2022-08-02T23:07:38.763Z,83.90
2022-08-02T23:12:08.540Z,83.90
2022-08-02T23:14:19.805Z,84.10
2022-08-02T23:16:44.165Z,84.20
2022-08-02T23:19:10.684Z,84.50
2022-08-02T23:21:27.612Z,84.50
2022-08-02T23:25:58.257Z,84.60
2022-08-02T23:30:26.651Z,85.30
2022-08-02T23:34:57.963Z,85.40
2022-08-02T23:39:27.693Z,85.40
2022-08-02T23:41:38.673Z,85.80
2022-08-02T23:46:07.250Z,85.60
2022-08-02T23:48:18.632Z,85.10
2022-08-02T23:52:50.767Z,85.20
2022-08-02T23:57:20.246Z,85.30
